createdAt,value
2022-08-19T00:01:56.492Z,21.10
2022-08-19T00:04:26.824Z,21.10
2022-08-19T00:06:55.213Z,21.00
2022-08-19T00:09:25.072Z,21.00
2022-08-19T00:11:53.872Z,21.00
2022-08-19T00:14:22.796Z,21.10
2022-08-19T00:16:55.365Z,21.00
2022-08-19T00:19:24.825Z,20.90
2022-08-19T00:21:53.070Z,20.90
2022-08-19T00:24:21.087Z,20.80
2022-08-19T00:26:49.341Z,20.80
2022-08-19T00:29:19.758Z,20.80
2022-08-19T00:31:48.735Z,20.80
2022-08-19T00:34:20.488Z,20.80
2022-08-19T00:36:48.670Z,20.70
2022-08-19T00:39:17.979Z,20.70
2022-08-19T00:41:48.427Z,20.60
2022-08-19T00:44:20.836Z,20.50
2022-08-19T00:46:57.782Z,20.50
2022-08-19T00:49:33.764Z,20.40
2022-08-19T00:52:08.237Z,20.40
2022-08-19T00:54:38.555Z,20.40
2022-08-19T00:57:11.036Z,20.40
2022-08-19T01:00:00.364Z,20.30
2022-08-19T01:02:31.499Z,20.20
2022-08-19T01:05:02.277Z,20.20
2022-08-19T01:07:37.885Z,20.20
2022-08-19T01:10:08.443Z,20.30
2022-08-19T01:12:37.204Z,20.30
2022-08-19T01:15:06.536Z,20.30
2022-08-19T01:17:35.874Z,20.30
2022-08-19T01:20:08.469Z,20.30
2022-08-19T01:22:45.005Z,20.30
2022-08-19T01:25:15.086Z,20.30
2022-08-19T01:27:45.631Z,20.30
2022-08-19T01:30:16.121Z,20.30
2022-08-19T01:32:44.412Z,20.20
2022-08-19T01:35:14.299Z,20.10
2022-08-19T01:37:48.877Z,20.20
2022-08-19T01:40:18.224Z,20.10
2022-08-19T01:42:46.405Z,20.00
2022-08-19T01:45:14.461Z,20.00
2022-08-19T01:47:42.982Z,19.90
2022-08-19T01:50:20.309Z,20.20
2022-08-19T01:53:02.384Z,19.70
2022-08-19T01:55:36.434Z,19.60
2022-08-19T01:58:13.087Z,19.60
2022-08-19T02:00:41.684Z,19.60
2022-08-19T02:03:10.217Z,19.60
2022-08-19T02:05:38.659Z,19.60
2022-08-19T02:08:08.171Z,19.50
2022-08-19T02:10:40.114Z,19.40
2022-08-19T02:13:08.272Z,19.20
2022-08-19T02:15:36.310Z,19.10
2022-08-19T02:18:06.396Z,19.10
2022-08-19T02:20:34.832Z,19.10
2022-08-19T02:23:03.248Z,19.10
2022-08-19T02:25:32.922Z,19.10
2022-08-19T02:28:01.360Z,19.10
2022-08-19T02:30:29.515Z,19.20
2022-08-19T02:32:57.903Z,19.10
2022-08-19T02:35:26.510Z,19.20
2022-08-19T02:38:12.260Z,19.20
2022-08-19T02:40:41.682Z,19.30
2022-08-19T02:43:11.073Z,19.30
2022-08-19T02:45:41.505Z,19.40
2022-08-19T02:48:21.010Z,19.40
2022-08-19T02:50:53.936Z,19.40
2022-08-19T02:53:23.010Z,19.50
2022-08-19T02:55:53.250Z,19.50
2022-08-19T02:58:23.207Z,19.40
2022-08-19T03:00:56.170Z,19.40
2022-08-19T03:03:25.400Z,19.30
2022-08-19T03:05:56.468Z,19.30
2022-08-19T03:08:25.366Z,19.20
2022-08-19T03:10:55.789Z,19.20
2022-08-19T03:13:25.053Z,19.20
2022-08-19T03:15:53.137Z,19.30
2022-08-19T03:18:23.205Z,19.30
2022-08-19T03:20:55.546Z,19.40
2022-08-19T03:23:24.768Z,19.40
2022-08-19T03:25:58.195Z,19.50
2022-08-19T03:28:47.701Z,19.50
2022-08-19T03:31:44.049Z,19.50
2022-08-19T03:34:12.610Z,19.50
2022-08-19T03:36:41.677Z,19.50
2022-08-19T03:39:10.382Z,19.40
2022-08-19T03:41:45.651Z,19.50
2022-08-19T03:44:16.940Z,19.50
2022-08-19T03:46:47.940Z,19.40
2022-08-19T03:49:18.506Z,19.80
2022-08-19T03:51:48.619Z,19.40
2022-08-19T03:54:18.435Z,19.30
2022-08-19T03:56:49.935Z,19.30
2022-08-19T03:59:21.642Z,19.30
2022-08-19T04:01:49.728Z,19.40
2022-08-19T04:04:17.725Z,19.40
2022-08-19T04:06:48.743Z,19.40
2022-08-19T04:09:17.540Z,19.50
2022-08-19T04:11:48.599Z,19.40
2022-08-19T04:14:19.275Z,19.40
2022-08-19T04:16:48.352Z,19.40
2022-08-19T04:19:18.593Z,19.40
2022-08-19T04:21:48.326Z,19.40
2022-08-19T04:24:17.124Z,19.40
2022-08-19T04:26:45.956Z,19.30
2022-08-19T04:29:17.567Z,19.30
2022-08-19T04:31:46.336Z,19.30
2022-08-19T04:34:17.554Z,19.40
2022-08-19T04:36:46.855Z,19.30
2022-08-19T04:39:18.614Z,19.30
2022-08-19T04:42:04.303Z,19.30
2022-08-19T04:44:35.169Z,19.30
2022-08-19T04:47:11.200Z,19.30
2022-08-19T04:49:39.849Z,19.30
2022-08-19T04:52:09.408Z,19.30
2022-08-19T04:54:39.411Z,19.30
2022-08-19T04:57:10.733Z,19.20
2022-08-19T04:59:41.437Z,19.20
2022-08-19T05:02:10.974Z,19.30
2022-08-19T05:04:40.462Z,19.30
2022-08-19T05:07:09.249Z,19.30
2022-08-19T05:09:57.128Z,19.30
2022-08-19T05:12:29.383Z,19.40
2022-08-19T05:14:59.825Z,19.30
2022-08-19T05:17:32.287Z,19.40
2022-08-19T05:20:20.897Z,19.40
2022-08-19T05:22:49.645Z,19.40
2022-08-19T05:25:21.112Z,19.40
2022-08-19T05:27:50.163Z,19.40
2022-08-19T05:30:33.556Z,19.40
2022-08-19T05:33:10.962Z,19.40
2022-08-19T05:35:40.112Z,19.40
2022-08-19T05:38:09.290Z,19.40
2022-08-19T05:40:38.096Z,19.40
2022-08-19T05:43:08.029Z,19.40
2022-08-19T05:45:41.379Z,19.50
2022-08-19T05:48:11.985Z,19.50
2022-08-19T05:50:41.487Z,19.50
2022-08-19T05:53:10.272Z,19.50
2022-08-19T05:55:40.412Z,19.50
2022-08-19T05:58:08.990Z,20.40
2022-08-19T06:00:39.395Z,19.60
2022-08-19T06:03:12.443Z,19.60
2022-08-19T06:05:44.766Z,19.60
2022-08-19T06:08:19.672Z,19.50
2022-08-19T06:10:47.832Z,19.50
2022-08-19T06:13:15.875Z,19.50
2022-08-19T06:15:47.384Z,19.50
2022-08-19T06:18:16.525Z,19.60
2022-08-19T06:20:59.989Z,19.60
2022-08-19T06:23:28.118Z,19.60
2022-08-19T06:25:56.101Z,19.60
2022-08-19T06:28:24.683Z,19.60
2022-08-19T06:30:54.100Z,19.70
2022-08-19T06:33:22.136Z,19.60
2022-08-19T06:35:50.128Z,19.70
2022-08-19T06:38:18.189Z,19.70
2022-08-19T06:40:46.214Z,19.80
2022-08-19T06:43:16.859Z,19.80
2022-08-19T06:45:47.813Z,19.90
2022-08-19T06:48:17.240Z,19.80
2022-08-19T06:50:46.370Z,19.80
2022-08-19T06:53:14.803Z,19.80
2022-08-19T06:55:42.862Z,19.80
2022-08-19T06:58:11.249Z,19.80
2022-08-19T07:00:39.591Z,19.90
2022-08-19T07:03:08.738Z,19.80
2022-08-19T07:05:45.308Z,19.80
2022-08-19T07:08:14.396Z,19.70
2022-08-19T07:10:45.958Z,19.60
2022-08-19T07:13:14.032Z,19.60
2022-08-19T07:15:42.259Z,19.50
2022-08-19T07:18:11.924Z,19.60
2022-08-19T07:20:42.696Z,19.60
2022-08-19T07:23:16.568Z,19.60
2022-08-19T07:25:51.404Z,19.60
2022-08-19T07:28:24.268Z,19.70
2022-08-19T07:30:53.525Z,19.70
2022-08-19T07:33:22.011Z,19.80
2022-08-19T07:35:51.734Z,19.80
2022-08-19T07:38:19.745Z,19.70
2022-08-19T07:40:47.888Z,19.70
2022-08-19T07:43:17.945Z,19.70
2022-08-19T07:45:47.920Z,19.70
2022-08-19T07:48:16.543Z,19.70
2022-08-19T07:50:44.808Z,19.60
2022-08-19T07:53:14.299Z,19.60
2022-08-19T07:55:44.118Z,19.70
2022-08-19T07:58:14.971Z,19.60
2022-08-19T08:00:44.257Z,19.60
2022-08-19T08:03:12.548Z,19.60
2022-08-19T08:05:57.856Z,19.70
2022-08-19T08:08:48.250Z,19.70
2022-08-19T08:11:20.037Z,19.70
2022-08-19T08:14:01.287Z,19.80
2022-08-19T08:16:33.609Z,19.80
2022-08-19T08:19:03.137Z,19.80
2022-08-19T08:21:44.814Z,19.80
2022-08-19T08:24:14.490Z,19.70
2022-08-19T08:26:46.766Z,19.90
2022-08-19T08:29:16.567Z,19.90
2022-08-19T08:31:46.076Z,19.90
2022-08-19T08:34:15.827Z,20.00
2022-08-19T08:36:46.239Z,19.90
2022-08-19T08:39:17.567Z,19.80
2022-08-19T08:41:54.316Z,19.80
2022-08-19T08:44:26.166Z,19.60
2022-08-19T08:46:58.747Z,19.60
2022-08-19T08:49:34.687Z,19.50
2022-08-19T08:52:07.653Z,19.40
2022-08-19T08:54:55.056Z,19.30
2022-08-19T08:57:33.722Z,19.20
2022-08-19T09:00:15.892Z,19.10
2022-08-19T09:02:44.503Z,19.10
2022-08-19T09:05:16.815Z,19.10
2022-08-19T09:07:52.103Z,19.10
2022-08-19T09:10:30.323Z,19.10
2022-08-19T09:13:09.254Z,19.10
2022-08-19T09:15:45.373Z,19.20
2022-08-19T09:18:19.228Z,19.20
2022-08-19T09:20:49.073Z,19.30
2022-08-19T09:23:17.779Z,19.30
2022-08-19T09:25:47.268Z,19.30
2022-08-19T09:28:22.537Z,19.30
2022-08-19T09:30:55.225Z,19.40
2022-08-19T09:33:23.441Z,19.50
2022-08-19T09:35:53.679Z,19.50
2022-08-19T09:38:22.422Z,19.60
2022-08-19T09:40:51.871Z,19.60
2022-08-19T09:43:31.055Z,19.60
2022-08-19T09:46:01.865Z,19.50
2022-08-19T09:48:29.944Z,19.50
2022-08-19T09:51:05.964Z,19.40
2022-08-19T09:53:34.256Z,19.50
2022-08-19T09:56:04.313Z,19.60
2022-08-19T09:58:32.398Z,19.60
2022-08-19T10:01:01.537Z,19.60
2022-08-19T10:03:31.348Z,19.60
2022-08-19T10:06:01.589Z,19.50
2022-08-19T10:08:32.753Z,19.50
2022-08-19T10:11:27.393Z,19.50
2022-08-19T10:13:52.933Z,19.50
2022-08-19T10:16:25.978Z,19.50
2022-08-19T10:18:59.007Z,19.50
2022-08-19T10:21:32.169Z,19.50
2022-08-19T10:24:02.668Z,19.50
2022-08-19T10:26:34.804Z,19.60
2022-08-19T10:29:02.833Z,19.60
2022-08-19T10:32:02.219Z,19.60
2022-08-19T10:34:27.613Z,19.60
2022-08-19T10:37:00.938Z,19.70
2022-08-19T10:39:31.649Z,19.80
2022-08-19T10:42:06.974Z,19.80
2022-08-19T10:44:36.286Z,19.90
2022-08-19T10:47:05.017Z,20.00
2022-08-19T10:50:08.862Z,20.20
2022-08-19T10:52:49.257Z,20.30
2022-08-19T10:55:37.024Z,20.40
2022-08-19T10:58:11.276Z,20.50
2022-08-19T11:00:39.657Z,20.60
2022-08-19T11:03:07.940Z,20.70
2022-08-19T11:05:40.015Z,20.70
2022-08-19T11:08:23.237Z,20.90
2022-08-19T11:10:54.711Z,20.80
2022-08-19T11:13:24.394Z,20.80
2022-08-19T11:16:02.815Z,20.90
2022-08-19T11:18:35.048Z,20.90
2022-08-19T11:21:09.130Z,21.00
2022-08-19T11:23:37.176Z,21.00
2022-08-19T11:26:05.265Z,21.10
2022-08-19T11:28:34.779Z,21.20
2022-08-19T11:31:04.295Z,21.10
2022-08-19T11:33:33.706Z,21.10
2022-08-19T11:36:02.101Z,21.10
2022-08-19T11:38:30.172Z,21.00
2022-08-19T11:40:59.157Z,21.00
2022-08-19T11:43:28.134Z,21.10
2022-08-19T11:45:57.909Z,21.10
2022-08-19T11:48:26.819Z,21.10
2022-08-19T11:50:57.393Z,21.10
2022-08-19T11:53:26.077Z,21.20
2022-08-19T11:55:56.910Z,21.10
2022-08-19T11:58:25.783Z,21.20
2022-08-19T12:00:54.429Z,21.20
2022-08-19T12:03:24.236Z,21.10
2022-08-19T12:05:52.878Z,21.10
2022-08-19T12:08:21.264Z,21.20
2022-08-19T12:10:49.347Z,21.20
2022-08-19T12:13:19.314Z,21.10
2022-08-19T12:15:49.356Z,21.10
2022-08-19T12:18:17.368Z,21.10
2022-08-19T12:20:47.614Z,21.20
2022-08-19T12:23:16.227Z,21.20
2022-08-19T12:25:50.944Z,21.10
2022-08-19T12:28:19.368Z,21.20
2022-08-19T12:30:47.729Z,21.10
2022-08-19T12:33:16.361Z,21.20
2022-08-19T12:35:47.508Z,21.30
2022-08-19T12:38:16.682Z,21.30
2022-08-19T12:40:47.759Z,21.30
2022-08-19T12:43:17.554Z,21.20
2022-08-19T12:45:46.022Z,21.30
2022-08-19T12:48:34.566Z,21.30
2022-08-19T12:51:09.141Z,21.40
2022-08-19T12:53:39.420Z,21.40
2022-08-19T12:56:12.445Z,21.40
2022-08-19T12:58:42.635Z,21.40
2022-08-19T13:01:22.057Z,21.30
2022-08-19T13:03:53.120Z,21.40
2022-08-19T13:06:23.580Z,21.40
2022-08-19T13:08:53.696Z,21.40
2022-08-19T13:11:26.305Z,21.40
2022-08-19T13:13:56.264Z,21.30
2022-08-19T13:16:24.544Z,21.10
2022-08-19T13:18:53.300Z,20.90
2022-08-19T13:21:25.545Z,20.80
2022-08-19T13:23:54.122Z,20.70
2022-08-19T13:26:22.666Z,20.60
2022-08-19T13:29:08.104Z,20.60
2022-08-19T13:31:55.972Z,20.60
2022-08-19T13:34:30.789Z,20.50
2022-08-19T13:37:01.100Z,20.50
2022-08-19T13:39:29.087Z,20.50
2022-08-19T13:41:57.271Z,20.40
2022-08-19T13:44:25.318Z,20.40
2022-08-19T13:46:54.491Z,20.40
2022-08-19T13:49:24.093Z,20.50
2022-08-19T13:51:52.398Z,20.50
2022-08-19T13:54:21.846Z,20.50
2022-08-19T13:56:50.012Z,20.60
2022-08-19T13:59:18.612Z,20.50
2022-08-19T14:01:46.617Z,20.40
2022-08-19T14:04:14.696Z,20.40
2022-08-19T14:06:42.685Z,20.40
2022-08-19T14:09:10.711Z,20.40
2022-08-19T14:11:40.042Z,20.40
2022-08-19T14:14:08.040Z,20.30
2022-08-19T14:16:36.100Z,20.40
2022-08-19T14:19:04.204Z,20.40
2022-08-19T14:21:32.219Z,20.50
2022-08-19T14:24:00.174Z,20.50
2022-08-19T14:26:28.373Z,20.60
2022-08-19T14:28:58.187Z,20.40
2022-08-19T14:31:30.763Z,20.40
2022-08-19T14:33:59.141Z,20.20
2022-08-19T14:36:27.669Z,20.10
2022-08-19T14:38:55.707Z,20.10
2022-08-19T14:41:25.504Z,20.20
2022-08-19T14:43:55.512Z,20.20
2022-08-19T14:46:28.100Z,19.60
2022-08-19T14:48:59.887Z,20.50
2022-08-19T14:51:28.583Z,20.60
2022-08-19T14:53:56.708Z,20.70
2022-08-19T14:56:27.639Z,20.80
2022-08-19T14:58:56.239Z,20.80
2022-08-19T15:01:26.158Z,20.90
2022-08-19T15:03:54.731Z,20.80
2022-08-19T15:06:23.157Z,20.90
2022-08-19T15:08:52.675Z,20.80
2022-08-19T15:11:23.559Z,20.90
2022-08-19T15:13:52.124Z,21.00
2022-08-19T15:16:20.909Z,21.10
2022-08-19T15:18:52.933Z,21.20
2022-08-19T15:21:26.872Z,21.30
2022-08-19T15:23:57.542Z,21.40
2022-08-19T15:26:27.253Z,21.40
2022-08-19T15:28:55.942Z,21.50
2022-08-19T15:31:28.318Z,21.50
2022-08-19T15:33:59.282Z,21.70
2022-08-19T15:36:27.851Z,21.60
2022-08-19T15:38:56.070Z,21.70
2022-08-19T15:41:26.523Z,20.80
2022-08-19T15:43:58.893Z,21.70
2022-08-19T15:46:29.573Z,21.90
2022-08-19T15:49:00.033Z,22.20
2022-08-19T15:51:31.389Z,22.60
2022-08-19T16:12:57.689Z,24.10
2022-08-19T16:17:56.763Z,24.30
2022-08-19T16:20:27.837Z,24.20
2022-08-19T16:22:58.141Z,24.20
2022-08-19T16:25:28.910Z,24.20
2022-08-19T16:28:06.235Z,24.10
2022-08-19T16:30:36.848Z,24.00
2022-08-19T16:33:04.929Z,24.20
2022-08-19T16:35:34.347Z,24.10
2022-08-19T16:38:02.608Z,24.10
2022-08-19T16:40:30.609Z,24.00
2022-08-19T16:42:58.822Z,23.90
2022-08-19T16:45:26.800Z,23.90
2022-08-19T16:47:55.241Z,23.80
2022-08-19T16:50:39.323Z,23.80
2022-08-19T16:53:12.701Z,23.80
2022-08-19T16:55:41.140Z,23.70
2022-08-19T16:58:09.277Z,23.70
2022-08-19T17:00:37.388Z,23.60
2022-08-19T17:03:14.679Z,23.40
2022-08-19T17:05:44.005Z,23.30
2022-08-19T17:08:13.659Z,23.10
2022-08-19T17:10:48.836Z,22.90
2022-08-19T17:13:30.598Z,22.80
2022-08-19T17:15:59.405Z,22.70
2022-08-19T17:18:31.693Z,22.50
2022-08-19T17:21:01.025Z,22.40
2022-08-19T17:23:42.239Z,22.30
2022-08-19T17:26:16.800Z,22.20
2022-08-19T17:28:47.966Z,22.10
2022-08-19T17:31:16.221Z,22.20
2022-08-19T17:33:48.068Z,22.00
2022-08-19T17:58:59.693Z,21.20
2022-08-19T18:01:40.289Z,21.20
2022-08-19T18:04:19.841Z,21.20
2022-08-19T18:06:53.004Z,21.20
2022-08-19T18:09:24.946Z,21.10
2022-08-19T18:11:54.367Z,21.50
2022-08-19T18:14:32.973Z,21.10
2022-08-19T18:17:05.512Z,21.20
2022-08-19T18:19:41.017Z,20.30
2022-08-19T18:22:23.100Z,21.00
2022-08-19T18:24:52.828Z,21.00
2022-08-19T18:27:20.859Z,21.10
2022-08-19T18:29:49.143Z,21.10
2022-08-19T18:32:23.635Z,21.10
2022-08-19T18:34:52.955Z,21.10
2022-08-19T18:37:20.942Z,21.10
2022-08-19T18:40:06.317Z,21.10
2022-08-19T18:42:53.337Z,21.00
2022-08-19T18:45:39.090Z,20.90
2022-08-19T18:48:29.159Z,20.90
2022-08-19T18:50:59.425Z,20.90
2022-08-19T18:53:30.366Z,20.10
2022-08-19T18:55:59.420Z,20.90
2022-08-19T18:58:33.757Z,20.80
2022-08-19T19:01:09.222Z,20.70
2022-08-19T19:03:37.544Z,20.60
2022-08-19T19:06:07.130Z,20.60
2022-08-19T19:08:35.550Z,20.50
2022-08-19T19:11:05.916Z,20.40
2022-08-19T19:13:37.412Z,20.50
2022-08-19T19:16:05.907Z,20.40
2022-08-19T19:18:34.381Z,20.50
2022-08-19T19:21:02.349Z,20.50
2022-08-19T19:23:30.442Z,20.40
2022-08-19T19:25:58.447Z,20.40
2022-08-19T19:28:28.633Z,20.30
2022-08-19T19:30:59.022Z,20.30
2022-08-19T19:33:27.270Z,20.20
2022-08-19T19:35:55.423Z,20.10
2022-08-19T19:38:23.587Z,20.30
2022-08-19T19:40:51.664Z,20.00
2022-08-19T19:43:19.681Z,19.90
2022-08-19T19:45:49.280Z,20.00
2022-08-19T19:48:18.641Z,19.80
2022-08-19T19:50:53.303Z,19.90
2022-08-19T19:53:24.805Z,19.80
2022-08-19T19:55:57.603Z,19.80
2022-08-19T19:58:28.468Z,19.80
2022-08-19T20:00:58.579Z,19.90
2022-08-19T20:03:28.072Z,19.80
2022-08-19T20:05:59.318Z,19.70
2022-08-19T20:08:45.424Z,19.80
2022-08-19T20:11:17.532Z,19.80
2022-08-19T20:13:45.530Z,19.70
2022-08-19T20:16:13.790Z,19.70
2022-08-19T20:18:43.681Z,19.70
2022-08-19T20:21:12.361Z,19.80
2022-08-19T20:23:40.391Z,19.80
2022-08-19T20:26:09.698Z,19.80
2022-08-19T20:29:03.099Z,19.70
2022-08-19T20:31:54.341Z,19.80
2022-08-19T20:34:27.555Z,19.90
2022-08-19T20:36:55.641Z,19.80
2022-08-19T20:39:23.665Z,19.60
2022-08-19T20:41:51.704Z,19.70
2022-08-19T20:44:19.814Z,19.40
2022-08-19T20:46:54.570Z,19.60
2022-08-19T20:49:27.279Z,19.60
2022-08-19T20:51:58.269Z,19.60
2022-08-19T20:54:27.361Z,19.50
2022-08-19T20:56:55.873Z,19.50
2022-08-19T20:59:25.759Z,19.50
2022-08-19T21:01:54.565Z,19.70
2022-08-19T21:04:23.124Z,19.50
2022-08-19T21:06:51.788Z,19.50
2022-08-19T21:09:21.773Z,19.50
2022-08-19T21:11:49.843Z,19.50
2022-08-19T21:14:19.020Z,19.70
2022-08-19T21:16:47.034Z,19.40
2022-08-19T21:19:15.034Z,19.50
2022-08-19T21:21:43.294Z,19.50
2022-08-19T21:24:11.873Z,19.50
2022-08-19T21:26:41.505Z,19.50
2022-08-19T21:29:09.573Z,19.50
2022-08-19T21:31:37.562Z,19.50
2022-08-19T21:34:05.939Z,19.60
2022-08-19T21:36:33.987Z,19.50
2022-08-19T21:39:02.110Z,19.70
2022-08-19T21:41:30.191Z,19.70
2022-08-19T21:43:59.672Z,19.60
2022-08-19T21:46:28.393Z,19.60
2022-08-19T21:48:56.410Z,19.60
2022-08-19T21:51:24.421Z,19.60
2022-08-19T21:53:52.841Z,19.70
2022-08-19T21:56:21.187Z,19.70
2022-08-19T21:58:49.382Z,19.70
2022-08-19T22:01:18.814Z,19.70
2022-08-19T22:03:47.024Z,19.70
2022-08-19T22:06:16.320Z,19.80
2022-08-19T22:08:44.867Z,19.70
2022-08-19T22:11:13.180Z,19.80
2022-08-19T22:13:41.442Z,19.80
2022-08-19T22:16:10.668Z,19.90
2022-08-19T22:18:39.990Z,20.00
2022-08-19T22:21:11.733Z,20.00
2022-08-19T22:23:41.421Z,20.00
2022-08-19T22:26:09.455Z,20.10
2022-08-19T22:28:37.878Z,20.10
2022-08-19T22:31:08.144Z,20.10
2022-08-19T22:33:37.353Z,20.10
2022-08-19T22:36:08.410Z,20.10
2022-08-19T22:38:37.329Z,20.20
2022-08-19T22:41:07.858Z,20.20
2022-08-19T22:43:36.837Z,20.30
2022-08-19T22:46:06.487Z,20.20
2022-08-19T22:48:46.050Z,19.80
2022-08-19T22:51:33.343Z,20.30
2022-08-19T22:54:01.555Z,20.40
2022-08-19T22:56:30.851Z,20.30
2022-08-19T22:58:59.246Z,20.30
2022-08-19T23:01:30.554Z,20.20
2022-08-19T23:04:00.081Z,20.30
2022-08-19T23:06:35.659Z,20.20
2022-08-19T23:09:07.779Z,20.20
2022-08-19T23:11:42.154Z,20.10
2022-08-19T23:14:12.524Z,19.90
2022-08-19T23:16:41.670Z,20.00
2022-08-19T23:19:10.526Z,19.90
2022-08-19T23:21:40.132Z,19.90
2022-08-19T23:24:08.738Z,19.90
2022-08-19T23:26:37.145Z,19.90
2022-08-19T23:29:23.595Z,19.90
2022-08-19T23:31:51.768Z,19.80
2022-08-19T23:34:19.846Z,19.90
2022-08-19T23:36:50.362Z,19.60
2022-08-19T23:39:19.144Z,19.80
2022-08-19T23:41:47.155Z,19.80
2022-08-19T23:44:15.532Z,19.80
2022-08-19T23:46:54.627Z,19.80
2022-08-19T23:49:24.951Z,19.80
2022-08-19T23:51:55.523Z,19.70
2022-08-19T23:54:43.161Z,19.70
2022-08-19T23:57:13.817Z,19.40
2022-08-19T23:59:45.153Z,19.60
